sensor_id;sensor_type;location;lat;lon;timestamp;P1;durP1;ratioP1;P2;durP2;ratioP2
71207;SDS011;58938;49.868;8.646;2023-04-01T00:01:31;5.43;;;1.90;;
71207;SDS011;58938;49.868;8.646;2023-04-01T00:03:57;4.20;;;1.88;;
71207;SDS011;58938;49.868;8.646;2023-04-01T00:06:23;6.25;;;2.35;;
71207;SDS011;58938;49.868;8.646;2023-04-01T00:08:50;6.85;;;2.22;;
71207;SDS011;58938;49.868;8.646;2023-04-01T00:11:16;5.75;;;2.03;;
71207;SDS011;58938;49.868;8.646;2023-04-01T00:13:42;9.23;;;2.33;;
71207;SDS011;58938;49.868;8.646;2023-04-01T00:16:08;5.97;;;1.75;;
71207;SDS011;58938;49.868;8.646;2023-04-01T00:18:34;3.95;;;1.77;;
71207;SDS011;58938;49.868;8.646;2023-04-01T00:21:00;4.07;;;1.83;;
71207;SDS011;58938;49.868;8.646;2023-04-01T00:23:26;7.18;;;2.35;;
71207;SDS011;58938;49.868;8.646;2023-04-01T00:25:52;5.80;;;2.70;;
71207;SDS011;58938;49.868;8.646;2023-04-01T00:28:19;6.25;;;1.88;;
71207;SDS011;58938;49.868;8.646;2023-04-01T00:30:45;4.10;;;2.25;;
71207;SDS011;58938;49.868;8.646;2023-04-01T00:33:12;3.80;;;1.90;;
71207;SDS011;58938;49.868;8.646;2023-04-01T00:35:38;6.10;;;2.47;;
71207;SDS011;58938;49.868;8.646;2023-04-01T00:38:04;7.57;;;2.73;;
71207;SDS011;58938;49.868;8.646;2023-04-01T00:42:57;6.07;;;1.75;;
71207;SDS011;58938;49.868;8.646;2023-04-01T00:47:49;5.95;;;1.85;;
71207;SDS011;58938;49.868;8.646;2023-04-01T00:50:15;4.10;;;2.03;;
71207;SDS011;58938;49.868;8.646;2023-04-01T00:52:41;7.95;;;2.38;;
71207;SDS011;58938;49.868;8.646;2023-04-01T00:55:07;4.90;;;1.90;;
71207;SDS011;58938;49.868;8.646;2023-04-01T00:57:36;5.10;;;2.47;;
71207;SDS011;58938;49.868;8.646;2023-04-01T01:00:04;5.57;;;2.28;;
71207;SDS011;58938;49.868;8.646;2023-04-01T01:02:32;6.23;;;1.87;;
71207;SDS011;58938;49.868;8.646;2023-04-01T01:04:58;6.22;;;2.38;;
71207;SDS011;58938;49.868;8.646;2023-04-01T01:12:45;4.10;;;2.00;;
71207;SDS011;58938;49.868;8.646;2023-04-01T01:15:25;5.53;;;2.20;;
71207;SDS011;58938;49.868;8.646;2023-04-01T01:18:14;5.47;;;2.10;;
71207;SDS011;58938;49.868;8.646;2023-04-01T01:25:59;6.23;;;2.37;;
71207;SDS011;58938;49.868;8.646;2023-04-01T01:35:55;6.47;;;1.90;;
71207;SDS011;58938;49.868;8.646;2023-04-01T01:38:23;6.93;;;2.40;;
71207;SDS011;58938;49.868;8.646;2023-04-01T01:40:49;4.43;;;1.88;;
71207;SDS011;58938;49.868;8.646;2023-04-01T01:43:22;5.75;;;2.38;;
71207;SDS011;58938;49.868;8.646;2023-04-01T01:45:50;4.43;;;1.92;;
71207;SDS011;58938;49.868;8.646;2023-04-01T01:48:18;8.88;;;2.47;;
71207;SDS011;58938;49.868;8.646;2023-04-01T01:50:44;5.00;;;1.80;;
71207;SDS011;58938;49.868;8.646;2023-04-01T01:53:11;7.63;;;2.35;;
71207;SDS011;58938;49.868;8.646;2023-04-01T01:55:39;6.03;;;2.15;;
71207;SDS011;58938;49.868;8.646;2023-04-01T01:58:16;6.07;;;3.00;;
71207;SDS011;58938;49.868;8.646;2023-04-01T02:00:45;5.57;;;2.50;;
71207;SDS011;58938;49.868;8.646;2023-04-01T02:03:12;6.40;;;1.80;;
71207;SDS011;58938;49.868;8.646;2023-04-01T02:05:39;8.23;;;2.30;;
71207;SDS011;58938;49.868;8.646;2023-04-01T02:08:15;5.38;;;2.10;;
71207;SDS011;58938;49.868;8.646;2023-04-01T02:10:44;6.05;;;1.65;;
71207;SDS011;58938;49.868;8.646;2023-04-01T02:13:34;6.93;;;2.22;;
71207;SDS011;58938;49.868;8.646;2023-04-01T02:15:58;8.60;;;2.30;;
71207;SDS011;58938;49.868;8.646;2023-04-01T02:18:25;7.13;;;2.33;;
71207;SDS011;58938;49.868;8.646;2023-04-01T02:20:54;6.97;;;2.30;;
71207;SDS011;58938;49.868;8.646;2023-04-01T02:23:21;6.25;;;2.17;;
71207;SDS011;58938;49.868;8.646;2023-04-01T02:25:48;7.05;;;2.33;;
71207;SDS011;58938;49.868;8.646;2023-04-01T02:28:14;7.17;;;2.30;;
71207;SDS011;58938;49.868;8.646;2023-04-01T02:30:42;3.30;;;1.77;;
71207;SDS011;58938;49.868;8.646;2023-04-01T02:33:09;5.10;;;2.20;;
71207;SDS011;58938;49.868;8.646;2023-04-01T02:35:35;5.85;;;2.13;;
71207;SDS011;58938;49.868;8.646;2023-04-01T02:38:02;6.97;;;2.78;;
71207;SDS011;58938;49.868;8.646;2023-04-01T02:40:28;5.23;;;2.27;;
71207;SDS011;58938;49.868;8.646;2023-04-01T02:42:54;6.45;;;2.45;;
71207;SDS011;58938;49.868;8.646;2023-04-01T02:45:20;7.72;;;2.42;;
71207;SDS011;58938;49.868;8.646;2023-04-01T02:47:46;6.18;;;2.13;;
71207;SDS011;58938;49.868;8.646;2023-04-01T02:50:12;8.47;;;2.77;;
71207;SDS011;58938;49.868;8.646;2023-04-01T02:52:38;4.88;;;1.38;;
71207;SDS011;58938;49.868;8.646;2023-04-01T02:55:04;5.45;;;2.72;;
71207;SDS011;58938;49.868;8.646;2023-04-01T02:57:30;5.88;;;2.25;;
71207;SDS011;58938;49.868;8.646;2023-04-01T02:59:56;4.73;;;2.23;;
71207;SDS011;58938;49.868;8.646;2023-04-01T03:02:22;8.80;;;2.78;;
71207;SDS011;58938;49.868;8.646;2023-04-01T03:04:48;4.18;;;1.75;;
71207;SDS011;58938;49.868;8.646;2023-04-01T03:07:14;8.55;;;1.95;;
71207;SDS011;58938;49.868;8.646;2023-04-01T03:09:40;4.43;;;1.67;;
71207;SDS011;58938;49.868;8.646;2023-04-01T03:12:06;4.90;;;2.33;;
71207;SDS011;58938;49.868;8.646;2023-04-01T03:14:32;5.40;;;2.28;;
71207;SDS011;58938;49.868;8.646;2023-04-01T03:16:58;5.10;;;2.17;;
71207;SDS011;58938;49.868;8.646;2023-04-01T03:19:24;4.10;;;1.90;;
71207;SDS011;58938;49.868;8.646;2023-04-01T03:21:50;6.20;;;2.40;;
71207;SDS011;58938;49.868;8.646;2023-04-01T03:24:16;6.45;;;2.28;;
71207;SDS011;58938;49.868;8.646;2023-04-01T03:26:42;6.53;;;2.25;;
71207;SDS011;58938;49.868;8.646;2023-04-01T03:29:08;4.70;;;1.97;;
71207;SDS011;58938;49.868;8.646;2023-04-01T03:31:34;5.28;;;1.85;;
71207;SDS011;58938;49.868;8.646;2023-04-01T03:34:00;4.57;;;1.88;;
71207;SDS011;58938;49.868;8.646;2023-04-01T03:36:26;4.78;;;1.80;;
71207;SDS011;58938;49.868;8.646;2023-04-01T03:38:52;8.20;;;2.87;;
71207;SDS011;58938;49.868;8.646;2023-04-01T03:41:18;6.60;;;2.47;;
71207;SDS011;58938;49.868;8.646;2023-04-01T03:43:44;6.85;;;2.17;;
71207;SDS011;58938;49.868;8.646;2023-04-01T03:46:10;3.30;;;1.75;;
71207;SDS011;58938;49.868;8.646;2023-04-01T03:48:36;6.78;;;2.50;;
71207;SDS011;58938;49.868;8.646;2023-04-01T03:51:06;7.97;;;2.27;;
71207;SDS011;58938;49.868;8.646;2023-04-01T03:53:32;10.18;;;2.40;;
71207;SDS011;58938;49.868;8.646;2023-04-01T03:55:58;6.53;;;1.75;;
71207;SDS011;58938;49.868;8.646;2023-04-01T03:58:24;5.53;;;2.30;;
71207;SDS011;58938;49.868;8.646;2023-04-01T04:00:50;5.17;;;1.87;;
71207;SDS011;58938;49.868;8.646;2023-04-01T04:03:16;5.15;;;1.85;;
71207;SDS011;58938;49.868;8.646;2023-04-01T04:05:46;6.30;;;2.15;;
71207;SDS011;58938;49.868;8.646;2023-04-01T04:08:12;5.13;;;1.70;;
71207;SDS011;58938;49.868;8.646;2023-04-01T04:10:38;8.68;;;2.17;;
71207;SDS011;58938;49.868;8.646;2023-04-01T04:13:04;7.38;;;2.33;;
71207;SDS011;58938;49.868;8.646;2023-04-01T04:15:30;6.15;;;2.08;;
71207;SDS011;58938;49.868;8.646;2023-04-01T04:17:56;5.27;;;2.07;;
71207;SDS011;58938;49.868;8.646;2023-04-01T04:20:22;5.53;;;2.03;;
71207;SDS011;58938;49.868;8.646;2023-04-01T04:22:48;5.13;;;2.00;;
71207;SDS011;58938;49.868;8.646;2023-04-01T04:25:14;5.90;;;2.60;;
71207;SDS011;58938;49.868;8.646;2023-04-01T04:27:40;5.50;;;2.13;;
71207;SDS011;58938;49.868;8.646;2023-04-01T04:30:06;5.50;;;2.10;;
71207;SDS011;58938;49.868;8.646;2023-04-01T04:32:33;5.00;;;2.47;;
71207;SDS011;58938;49.868;8.646;2023-04-01T04:34:59;4.45;;;2.17;;
71207;SDS011;58938;49.868;8.646;2023-04-01T04:37:25;5.47;;;1.80;;
71207;SDS011;58938;49.868;8.646;2023-04-01T04:39:51;3.80;;;1.67;;
71207;SDS011;58938;49.868;8.646;2023-04-01T04:42:17;6.22;;;2.28;;
71207;SDS011;58938;49.868;8.646;2023-04-01T04:44:43;3.78;;;2.08;;
71207;SDS011;58938;49.868;8.646;2023-04-01T04:47:09;5.30;;;2.17;;
71207;SDS011;58938;49.868;8.646;2023-04-01T04:49:35;6.03;;;2.37;;
71207;SDS011;58938;49.868;8.646;2023-04-01T04:52:01;6.07;;;2.38;;
71207;SDS011;58938;49.868;8.646;2023-04-01T04:54:27;5.00;;;1.65;;
71207;SDS011;58938;49.868;8.646;2023-04-01T04:56:53;5.60;;;2.15;;
71207;SDS011;58938;49.868;8.646;2023-04-01T04:59:19;5.33;;;1.37;;
71207;SDS011;58938;49.868;8.646;2023-04-01T05:01:45;4.20;;;1.70;;
71207;SDS011;58938;49.868;8.646;2023-04-01T05:04:10;3.45;;;1.67;;
71207;SDS011;58938;49.868;8.646;2023-04-01T05:06:36;4.47;;;2.05;;
71207;SDS011;58938;49.868;8.646;2023-04-01T05:09:02;5.80;;;1.83;;
71207;SDS011;58938;49.868;8.646;2023-04-01T05:11:28;4.00;;;2.20;;
71207;SDS011;58938;49.868;8.646;2023-04-01T05:13:54;4.47;;;1.55;;
71207;SDS011;58938;49.868;8.646;2023-04-01T05:16:20;4.32;;;2.00;;
71207;SDS011;58938;49.868;8.646;2023-04-01T05:18:46;5.10;;;2.00;;
71207;SDS011;58938;49.868;8.646;2023-04-01T05:21:13;5.65;;;2.25;;
71207;SDS011;58938;49.868;8.646;2023-04-01T05:23:39;4.13;;;1.98;;
71207;SDS011;58938;49.868;8.646;2023-04-01T05:26:06;6.13;;;1.65;;
71207;SDS011;58938;49.868;8.646;2023-04-01T05:28:33;5.93;;;1.83;;
71207;SDS011;58938;49.868;8.646;2023-04-01T05:30:59;4.50;;;2.10;;
71207;SDS011;58938;49.868;8.646;2023-04-01T05:33:26;3.97;;;1.80;;
71207;SDS011;58938;49.868;8.646;2023-04-01T05:35:52;7.13;;;2.10;;
71207;SDS011;58938;49.868;8.646;2023-04-01T05:38:18;4.57;;;2.15;;
71207;SDS011;58938;49.868;8.646;2023-04-01T05:40:44;6.63;;;1.77;;
71207;SDS011;58938;49.868;8.646;2023-04-01T05:43:10;6.57;;;1.98;;
71207;SDS011;58938;49.868;8.646;2023-04-01T05:45:36;4.05;;;2.17;;
71207;SDS011;58938;49.868;8.646;2023-04-01T05:48:02;6.25;;;1.95;;
71207;SDS011;58938;49.868;8.646;2023-04-01T05:50:29;3.27;;;1.70;;
71207;SDS011;58938;49.868;8.646;2023-04-01T05:52:55;5.53;;;2.30;;
71207;SDS011;58938;49.868;8.646;2023-04-01T05:55:21;5.50;;;1.88;;
71207;SDS011;58938;49.868;8.646;2023-04-01T05:57:47;5.28;;;2.03;;
71207;SDS011;58938;49.868;8.646;2023-04-01T06:00:14;4.00;;;2.10;;
71207;SDS011;58938;49.868;8.646;2023-04-01T06:02:40;3.23;;;1.83;;
71207;SDS011;58938;49.868;8.646;2023-04-01T06:07:36;5.90;;;2.20;;
71207;SDS011;58938;49.868;8.646;2023-04-01T06:10:05;4.35;;;1.77;;
71207;SDS011;58938;49.868;8.646;2023-04-01T06:20:51;7.10;;;1.65;;
71207;SDS011;58938;49.868;8.646;2023-04-01T06:31:03;4.75;;;2.00;;
71207;SDS011;58938;49.868;8.646;2023-04-01T06:34:08;3.42;;;1.52;;
71207;SDS011;58938;49.868;8.646;2023-04-01T06:39:11;3.27;;;1.53;;
71207;SDS011;58938;49.868;8.646;2023-04-01T06:46:59;4.68;;;1.58;;
71207;SDS011;58938;49.868;8.646;2023-04-01T06:49:31;4.00;;;1.80;;
71207;SDS011;58938;49.868;8.646;2023-04-01T06:52:18;3.00;;;1.30;;
71207;SDS011;58938;49.868;8.646;2023-04-01T06:54:49;3.20;;;1.73;;
71207;SDS011;58938;49.868;8.646;2023-04-01T06:57:26;5.45;;;1.67;;
71207;SDS011;58938;49.868;8.646;2023-04-01T06:59:55;6.93;;;1.42;;
71207;SDS011;58938;49.868;8.646;2023-04-01T07:04:55;4.67;;;1.73;;
71207;SDS011;58938;49.868;8.646;2023-04-01T07:07:33;4.55;;;1.40;;
71207;SDS011;58938;49.868;8.646;2023-04-01T07:10:00;3.65;;;2.03;;
71207;SDS011;58938;49.868;8.646;2023-04-01T07:15:02;3.47;;;2.05;;
71207;SDS011;58938;49.868;8.646;2023-04-01T07:17:30;4.03;;;1.57;;
71207;SDS011;58938;49.868;8.646;2023-04-01T07:24:56;4.70;;;1.70;;
71207;SDS011;58938;49.868;8.646;2023-04-01T07:27:23;4.00;;;1.98;;
71207;SDS011;58938;49.868;8.646;2023-04-01T07:29:49;3.00;;;1.40;;
71207;SDS011;58938;49.868;8.646;2023-04-01T07:32:17;4.55;;;2.17;;
71207;SDS011;58938;49.868;8.646;2023-04-01T07:37:32;4.45;;;1.30;;
71207;SDS011;58938;49.868;8.646;2023-04-01T07:40:20;5.40;;;2.05;;
71207;SDS011;58938;49.868;8.646;2023-04-01T07:48:09;4.25;;;2.10;;
71207;SDS011;58938;49.868;8.646;2023-04-01T07:50:41;3.92;;;1.60;;
71207;SDS011;58938;49.868;8.646;2023-04-01T08:03:33;3.58;;;1.80;;
71207;SDS011;58938;49.868;8.646;2023-04-01T08:06:13;3.72;;;2.22;;
71207;SDS011;58938;49.868;8.646;2023-04-01T08:08:47;3.67;;;1.97;;
71207;SDS011;58938;49.868;8.646;2023-04-01T08:21:11;4.53;;;1.60;;
71207;SDS011;58938;49.868;8.646;2023-04-01T08:23:40;3.63;;;1.77;;
71207;SDS011;58938;49.868;8.646;2023-04-01T08:26:16;3.92;;;1.98;;
71207;SDS011;58938;49.868;8.646;2023-04-01T08:28:46;3.20;;;1.40;;
71207;SDS011;58938;49.868;8.646;2023-04-01T08:31:16;3.30;;;2.10;;
71207;SDS011;58938;49.868;8.646;2023-04-01T08:33:44;3.50;;;1.58;;
71207;SDS011;58938;49.868;8.646;2023-04-01T08:36:15;4.95;;;2.17;;
71207;SDS011;58938;49.868;8.646;2023-04-01T08:38:43;4.80;;;1.90;;
71207;SDS011;58938;49.868;8.646;2023-04-01T08:51:47;3.65;;;1.73;;
71207;SDS011;58938;49.868;8.646;2023-04-01T08:54:22;3.17;;;1.67;;
71207;SDS011;58938;49.868;8.646;2023-04-01T08:57:03;4.27;;;1.93;;
71207;SDS011;58938;49.868;8.646;2023-04-01T09:02:00;3.47;;;1.63;;
71207;SDS011;58938;49.868;8.646;2023-04-01T09:12:52;4.88;;;1.85;;
71207;SDS011;58938;49.868;8.646;2023-04-01T09:20:42;3.30;;;2.00;;
71207;SDS011;58938;49.868;8.646;2023-04-01T09:23:14;3.17;;;1.52;;
71207;SDS011;58938;49.868;8.646;2023-04-01T09:25:48;3.78;;;1.63;;
71207;SDS011;58938;49.868;8.646;2023-04-01T09:33:41;2.65;;;1.25;;
71207;SDS011;58938;49.868;8.646;2023-04-01T09:36:21;3.10;;;1.52;;
71207;SDS011;58938;49.868;8.646;2023-04-01T09:38:55;3.60;;;1.58;;
71207;SDS011;58938;49.868;8.646;2023-04-01T09:41:29;3.30;;;1.85;;
71207;SDS011;58938;49.868;8.646;2023-04-01T09:44:15;2.90;;;1.30;;
71207;SDS011;58938;49.868;8.646;2023-04-01T09:54:31;3.92;;;1.52;;
71207;SDS011;58938;49.868;8.646;2023-04-01T10:02:41;2.53;;;1.17;;
71207;SDS011;58938;49.868;8.646;2023-04-01T10:21:06;3.20;;;1.50;;
71207;SDS011;58938;49.868;8.646;2023-04-01T10:28:50;3.33;;;1.60;;
71207;SDS011;58938;49.868;8.646;2023-04-01T10:36:53;3.80;;;1.83;;
71207;SDS011;58938;49.868;8.646;2023-04-01T10:39:30;3.30;;;1.83;;
71207;SDS011;58938;49.868;8.646;2023-04-01T10:49:23;4.15;;;1.90;;
71207;SDS011;58938;49.868;8.646;2023-04-01T11:07:47;3.13;;;1.60;;
71207;SDS011;58938;49.868;8.646;2023-04-01T11:10:36;5.97;;;2.30;;
71207;SDS011;58938;49.868;8.646;2023-04-01T11:16:09;3.15;;;1.83;;
71207;SDS011;58938;49.868;8.646;2023-04-01T11:18:58;3.22;;;1.60;;
71207;SDS011;58938;49.868;8.646;2023-04-01T11:24:13;3.30;;;1.97;;
71207;SDS011;58938;49.868;8.646;2023-04-01T11:40:06;3.88;;;1.67;;
71207;SDS011;58938;49.868;8.646;2023-04-01T11:50:33;3.47;;;1.50;;
71207;SDS011;58938;49.868;8.646;2023-04-01T11:55:38;3.13;;;1.50;;
71207;SDS011;58938;49.868;8.646;2023-04-01T11:58:08;3.80;;;2.20;;
71207;SDS011;58938;49.868;8.646;2023-04-01T12:00:57;2.60;;;1.20;;
71207;SDS011;58938;49.868;8.646;2023-04-01T12:06:23;4.00;;;2.28;;
71207;SDS011;58938;49.868;8.646;2023-04-01T12:11:50;3.65;;;2.00;;
71207;SDS011;58938;49.868;8.646;2023-04-01T12:16:57;4.93;;;1.83;;
71207;SDS011;58938;49.868;8.646;2023-04-01T12:24:53;4.20;;;2.00;;
71207;SDS011;58938;49.868;8.646;2023-04-01T12:27:26;3.30;;;1.80;;
71207;SDS011;58938;49.868;8.646;2023-04-01T12:32:31;3.50;;;2.17;;
71207;SDS011;58938;49.868;8.646;2023-04-01T12:55:45;3.97;;;2.30;;
71207;SDS011;58938;49.868;8.646;2023-04-01T12:58:34;3.45;;;1.75;;
71207;SDS011;58938;49.868;8.646;2023-04-01T13:06:16;4.47;;;2.05;;
71207;SDS011;58938;49.868;8.646;2023-04-01T13:11:14;3.33;;;1.63;;
71207;SDS011;58938;49.868;8.646;2023-04-01T13:23:55;3.13;;;1.50;;
71207;SDS011;58938;49.868;8.646;2023-04-01T13:34:13;4.10;;;2.30;;
71207;SDS011;58938;49.868;8.646;2023-04-01T13:37:18;4.20;;;2.22;;
71207;SDS011;58938;49.868;8.646;2023-04-01T13:39:35;4.50;;;2.58;;
71207;SDS011;58938;49.868;8.646;2023-04-01T13:42:13;3.90;;;2.23;;
71207;SDS011;58938;49.868;8.646;2023-04-01T13:44:45;4.05;;;1.88;;
71207;SDS011;58938;49.868;8.646;2023-04-01T13:55:49;3.40;;;1.60;;
71207;SDS011;58938;49.868;8.646;2023-04-01T13:58:17;5.32;;;2.05;;
71207;SDS011;58938;49.868;8.646;2023-04-01T14:00:50;5.15;;;2.13;;
71207;SDS011;58938;49.868;8.646;2023-04-01T14:05:55;3.67;;;1.83;;
71207;SDS011;58938;49.868;8.646;2023-04-01T14:08:36;3.90;;;2.10;;
71207;SDS011;58938;49.868;8.646;2023-04-01T14:13:51;4.65;;;1.73;;
71207;SDS011;58938;49.868;8.646;2023-04-01T14:22:05;3.20;;;1.70;;
71207;SDS011;58938;49.868;8.646;2023-04-01T14:24:42;3.15;;;1.70;;
71207;SDS011;58938;49.868;8.646;2023-04-01T14:37:19;4.00;;;2.10;;
71207;SDS011;58938;49.868;8.646;2023-04-01T14:42:55;3.50;;;1.88;;
71207;SDS011;58938;49.868;8.646;2023-04-01T14:50:54;3.80;;;2.08;;
71207;SDS011;58938;49.868;8.646;2023-04-01T14:56:00;3.47;;;1.90;;
71207;SDS011;58938;49.868;8.646;2023-04-01T14:58:46;3.63;;;1.73;;
71207;SDS011;58938;49.868;8.646;2023-04-01T15:01:16;4.88;;;1.70;;
71207;SDS011;58938;49.868;8.646;2023-04-01T15:14:01;3.58;;;2.13;;
71207;SDS011;58938;49.868;8.646;2023-04-01T15:16:48;3.28;;;1.77;;
71207;SDS011;58938;49.868;8.646;2023-04-01T15:19:24;4.85;;;1.98;;
71207;SDS011;58938;49.868;8.646;2023-04-01T15:24:43;3.47;;;1.70;;
71207;SDS011;58938;49.868;8.646;2023-04-01T15:32:16;3.58;;;1.98;;
71207;SDS011;58938;49.868;8.646;2023-04-01T15:39:49;3.15;;;1.67;;
71207;SDS011;58938;49.868;8.646;2023-04-01T15:42:29;4.38;;;2.10;;
71207;SDS011;58938;49.868;8.646;2023-04-01T15:45:01;3.40;;;1.70;;
71207;SDS011;58938;49.868;8.646;2023-04-01T15:53:04;3.60;;;1.52;;
71207;SDS011;58938;49.868;8.646;2023-04-01T15:55:39;3.33;;;1.80;;
71207;SDS011;58938;49.868;8.646;2023-04-01T16:08:38;2.72;;;1.35;;
71207;SDS011;58938;49.868;8.646;2023-04-01T16:11:15;3.77;;;2.03;;
71207;SDS011;58938;49.868;8.646;2023-04-01T16:21:41;6.32;;;2.08;;
71207;SDS011;58938;49.868;8.646;2023-04-01T16:24:14;3.20;;;1.97;;
71207;SDS011;58938;49.868;8.646;2023-04-01T16:26:50;4.25;;;1.88;;
71207;SDS011;58938;49.868;8.646;2023-04-01T16:29:19;3.10;;;1.70;;
71207;SDS011;58938;49.868;8.646;2023-04-01T16:32:12;4.72;;;1.90;;
71207;SDS011;58938;49.868;8.646;2023-04-01T16:34:47;3.28;;;1.58;;
71207;SDS011;58938;49.868;8.646;2023-04-01T16:40:02;3.58;;;1.70;;
71207;SDS011;58938;49.868;8.646;2023-04-01T16:42:40;3.08;;;1.50;;
71207;SDS011;58938;49.868;8.646;2023-04-01T16:47:57;3.67;;;1.73;;
71207;SDS011;58938;49.868;8.646;2023-04-01T16:58:36;3.30;;;1.63;;
71207;SDS011;58938;49.868;8.646;2023-04-01T17:01:04;3.17;;;1.70;;
71207;SDS011;58938;49.868;8.646;2023-04-01T17:03:36;5.68;;;1.90;;
71207;SDS011;58938;49.868;8.646;2023-04-01T17:06:25;4.03;;;2.03;;
71207;SDS011;58938;49.868;8.646;2023-04-01T17:30:03;3.70;;;2.05;;
71207;SDS011;58938;49.868;8.646;2023-04-01T17:32:39;3.10;;;1.65;;
71207;SDS011;58938;49.868;8.646;2023-04-01T17:35:19;4.30;;;2.08;;
71207;SDS011;58938;49.868;8.646;2023-04-01T17:38:01;3.87;;;1.57;;
71207;SDS011;58938;49.868;8.646;2023-04-01T17:43:12;3.72;;;1.88;;
71207;SDS011;58938;49.868;8.646;2023-04-01T17:45:47;4.60;;;1.92;;
71207;SDS011;58938;49.868;8.646;2023-04-01T17:48:21;3.85;;;1.90;;
71207;SDS011;58938;49.868;8.646;2023-04-01T17:53:35;3.70;;;1.63;;
71207;SDS011;58938;49.868;8.646;2023-04-01T17:58:33;3.65;;;1.75;;
71207;SDS011;58938;49.868;8.646;2023-04-01T18:01:12;3.58;;;2.05;;
71207;SDS011;58938;49.868;8.646;2023-04-01T18:06:11;3.30;;;1.73;;
71207;SDS011;58938;49.868;8.646;2023-04-01T18:08:45;3.17;;;1.77;;
71207;SDS011;58938;49.868;8.646;2023-04-01T18:11:19;3.72;;;2.00;;
71207;SDS011;58938;49.868;8.646;2023-04-01T18:16:26;3.77;;;1.93;;
71207;SDS011;58938;49.868;8.646;2023-04-01T18:18:58;3.03;;;1.67;;
71207;SDS011;58938;49.868;8.646;2023-04-01T18:24:02;4.05;;;1.70;;
71207;SDS011;58938;49.868;8.646;2023-04-01T18:26:32;4.40;;;2.47;;
71207;SDS011;58938;49.868;8.646;2023-04-01T18:29:02;5.90;;;2.30;;
71207;SDS011;58938;49.868;8.646;2023-04-01T18:31:34;6.35;;;1.77;;
71207;SDS011;58938;49.868;8.646;2023-04-01T18:39:02;4.55;;;2.22;;
71207;SDS011;58938;49.868;8.646;2023-04-01T18:41:30;4.23;;;2.17;;
71207;SDS011;58938;49.868;8.646;2023-04-01T18:49:05;4.30;;;2.10;;
71207;SDS011;58938;49.868;8.646;2023-04-01T18:51:34;5.00;;;1.77;;
71207;SDS011;58938;49.868;8.646;2023-04-01T18:54:05;5.30;;;2.13;;
71207;SDS011;58938;49.868;8.646;2023-04-01T18:56:34;4.07;;;1.88;;
71207;SDS011;58938;49.868;8.646;2023-04-01T19:01:55;4.35;;;2.05;;
71207;SDS011;58938;49.868;8.646;2023-04-01T19:06:58;3.78;;;1.90;;
71207;SDS011;58938;49.868;8.646;2023-04-01T19:09:26;4.57;;;1.73;;
71207;SDS011;58938;49.868;8.646;2023-04-01T19:11:56;3.97;;;1.88;;
71207;SDS011;58938;49.868;8.646;2023-04-01T19:14:33;3.72;;;1.50;;
71207;SDS011;58938;49.868;8.646;2023-04-01T19:25:30;4.13;;;2.08;;
71207;SDS011;58938;49.868;8.646;2023-04-01T19:28:02;4.40;;;2.17;;
71207;SDS011;58938;49.868;8.646;2023-04-01T19:35:47;4.68;;;2.20;;
71207;SDS011;58938;49.868;8.646;2023-04-01T19:51:28;4.82;;;1.95;;
71207;SDS011;58938;49.868;8.646;2023-04-01T19:54:11;6.50;;;2.00;;
71207;SDS011;58938;49.868;8.646;2023-04-01T19:56:40;4.23;;;1.80;;
71207;SDS011;58938;49.868;8.646;2023-04-01T19:59:11;4.93;;;2.00;;
71207;SDS011;58938;49.868;8.646;2023-04-01T20:04:32;4.78;;;2.20;;
71207;SDS011;58938;49.868;8.646;2023-04-01T20:07:10;4.07;;;2.10;;
71207;SDS011;58938;49.868;8.646;2023-04-01T20:14:50;4.28;;;1.83;;
71207;SDS011;58938;49.868;8.646;2023-04-01T20:17:23;3.58;;;1.75;;
71207;SDS011;58938;49.868;8.646;2023-04-01T20:22:29;3.50;;;1.60;;
71207;SDS011;58938;49.868;8.646;2023-04-01T20:24:58;4.88;;;2.17;;
71207;SDS011;58938;49.868;8.646;2023-04-01T20:27:26;4.43;;;2.78;;
71207;SDS011;58938;49.868;8.646;2023-04-01T20:29:56;8.35;;;2.00;;
71207;SDS011;58938;49.868;8.646;2023-04-01T20:37:34;3.90;;;2.17;;
71207;SDS011;58938;49.868;8.646;2023-04-01T20:45:36;4.13;;;2.13;;
71207;SDS011;58938;49.868;8.646;2023-04-01T20:50:48;4.40;;;2.22;;
71207;SDS011;58938;49.868;8.646;2023-04-01T20:56:01;3.60;;;2.03;;
71207;SDS011;58938;49.868;8.646;2023-04-01T20:58:44;4.00;;;1.83;;
71207;SDS011;58938;49.868;8.646;2023-04-01T21:01:26;4.07;;;2.33;;
71207;SDS011;58938;49.868;8.646;2023-04-01T21:06:33;4.03;;;2.22;;
71207;SDS011;58938;49.868;8.646;2023-04-01T21:17:10;5.93;;;2.00;;
71207;SDS011;58938;49.868;8.646;2023-04-01T21:25:10;4.47;;;1.87;;
71207;SDS011;58938;49.868;8.646;2023-04-01T21:27:47;3.58;;;1.67;;
71207;SDS011;58938;49.868;8.646;2023-04-01T21:30:28;4.60;;;2.35;;
71207;SDS011;58938;49.868;8.646;2023-04-01T21:43:54;4.32;;;2.30;;
71207;SDS011;58938;49.868;8.646;2023-04-01T22:08:12;4.07;;;2.28;;
71207;SDS011;58938;49.868;8.646;2023-04-01T22:12:42;5.05;;;2.35;;
71207;SDS011;58938;49.868;8.646;2023-04-01T22:20:14;4.78;;;2.33;;
71207;SDS011;58938;49.868;8.646;2023-04-01T22:25:31;6.40;;;2.35;;
71207;SDS011;58938;49.868;8.646;2023-04-01T22:28:03;5.15;;;2.53;;
71207;SDS011;58938;49.868;8.646;2023-04-01T22:30:32;5.63;;;2.63;;
71207;SDS011;58938;49.868;8.646;2023-04-01T22:33:05;5.38;;;2.30;;
71207;SDS011;58938;49.868;8.646;2023-04-01T22:35:36;4.57;;;1.98;;
71207;SDS011;58938;49.868;8.646;2023-04-01T22:38:09;5.13;;;2.67;;
71207;SDS011;58938;49.868;8.646;2023-04-01T22:40:44;4.28;;;2.42;;
71207;SDS011;58938;49.868;8.646;2023-04-01T22:43:12;4.90;;;2.43;;
71207;SDS011;58938;49.868;8.646;2023-04-01T22:48:26;4.10;;;2.60;;
71207;SDS011;58938;49.868;8.646;2023-04-01T22:51:03;4.20;;;2.22;;
71207;SDS011;58938;49.868;8.646;2023-04-01T22:55:59;5.30;;;2.67;;
71207;SDS011;58938;49.868;8.646;2023-04-01T22:58:34;5.57;;;3.00;;
71207;SDS011;58938;49.868;8.646;2023-04-01T23:01:04;5.97;;;2.97;;
71207;SDS011;58938;49.868;8.646;2023-04-01T23:03:31;5.25;;;2.75;;
71207;SDS011;58938;49.868;8.646;2023-04-01T23:05:58;5.50;;;2.60;;
71207;SDS011;58938;49.868;8.646;2023-04-01T23:09:08;5.45;;;2.70;;
71207;SDS011;58938;49.868;8.646;2023-04-01T23:11:25;5.22;;;3.00;;
71207;SDS011;58938;49.868;8.646;2023-04-01T23:13:53;5.30;;;2.50;;
71207;SDS011;58938;49.868;8.646;2023-04-01T23:16:21;6.03;;;3.20;;
71207;SDS011;58938;49.868;8.646;2023-04-01T23:19:01;4.50;;;2.60;;
71207;SDS011;58938;49.868;8.646;2023-04-01T23:24:10;5.47;;;3.38;;
71207;SDS011;58938;49.868;8.646;2023-04-01T23:26:47;5.97;;;3.53;;
71207;SDS011;58938;49.868;8.646;2023-04-01T23:29:17;5.70;;;3.25;;
71207;SDS011;58938;49.868;8.646;2023-04-01T23:31:47;5.80;;;3.50;;
71207;SDS011;58938;49.868;8.646;2023-04-01T23:36:43;6.25;;;3.13;;
71207;SDS011;58938;49.868;8.646;2023-04-01T23:39:55;5.70;;;3.50;;
71207;SDS011;58938;49.868;8.646;2023-04-01T23:41:58;6.93;;;4.15;;
71207;SDS011;58938;49.868;8.646;2023-04-01T23:44:25;6.70;;;3.73;;
71207;SDS011;58938;49.868;8.646;2023-04-01T23:46:51;7.25;;;3.92;;
71207;SDS011;58938;49.868;8.646;2023-04-01T23:49:19;6.80;;;4.05;;
71207;SDS011;58938;49.868;8.646;2023-04-01T23:51:57;12.23;;;3.75;;
71207;SDS011;58938;49.868;8.646;2023-04-01T23:54:34;6.80;;;4.30;;
71207;SDS011;58938;49.868;8.646;2023-04-01T23:57:09;6.00;;;3.57;;
71207;SDS011;58938;49.868;8.646;2023-04-01T23:59:36;6.63;;;3.90;;
